sensor_id;sensor_type;location;lat;lon;timestamp;P1;durP1;ratioP1;P2;durP2;ratioP2
45382;SDS011;42455;51.660;5.824;2022-08-01T00:02:29;17.0;;;15.0;;
45382;SDS011;42455;51.660;5.824;2022-08-01T00:07:35;17.0;;;15.0;;
45382;SDS011;42455;51.660;5.824;2022-08-01T00:12:41;16.0;;;14.0;;
45382;SDS011;42455;51.660;5.824;2022-08-01T00:17:47;16.0;;;14.0;;
45382;SDS011;42455;51.660;5.824;2022-08-01T00:22:53;16.0;;;14.0;;
45382;SDS011;42455;51.660;5.824;2022-08-01T00:28:00;15.5;;;14.0;;
45382;SDS011;42455;51.660;5.824;2022-08-01T00:33:06;17.0;;;15.0;;
45382;SDS011;42455;51.660;5.824;2022-08-01T00:43:18;17.0;;;15.0;;
45382;SDS011;42455;51.660;5.824;2022-08-01T00:48:25;17.0;;;15.0;;
45382;SDS011;42455;51.660;5.824;2022-08-01T00:53:30;21.0;;;18.0;;
45382;SDS011;42455;51.660;5.824;2022-08-01T00:58:36;20.0;;;17.0;;
45382;SDS011;42455;51.660;5.824;2022-08-01T01:03:42;17.0;;;15.0;;
45382;SDS011;42455;51.660;5.824;2022-08-01T01:08:49;13.0;;;12.0;;
45382;SDS011;42455;51.660;5.824;2022-08-01T01:13:57;14.0;;;13.0;;
45382;SDS011;42455;51.660;5.824;2022-08-01T01:19:00;15.0;;;14.0;;
45382;SDS011;42455;51.660;5.824;2022-08-01T01:24:49;13.0;;;12.0;;
45382;SDS011;42455;51.660;5.824;2022-08-01T01:29:32;12.0;;;11.0;;
45382;SDS011;42455;51.660;5.824;2022-08-01T01:34:19;12.0;;;11.0;;
45382;SDS011;42455;51.660;5.824;2022-08-01T01:39:25;13.0;;;12.0;;
45382;SDS011;42455;51.660;5.824;2022-08-01T01:44:31;13.0;;;11.0;;
45382;SDS011;42455;51.660;5.824;2022-08-01T01:49:37;13.0;;;11.0;;
45382;SDS011;42455;51.660;5.824;2022-08-01T01:54:51;13.0;;;12.0;;
45382;SDS011;42455;51.660;5.824;2022-08-01T01:59:50;13.0;;;12.0;;
45382;SDS011;42455;51.660;5.824;2022-08-01T02:04:56;13.5;;;12.0;;
45382;SDS011;42455;51.660;5.824;2022-08-01T02:10:03;13.0;;;12.0;;
45382;SDS011;42455;51.660;5.824;2022-08-01T02:15:08;13.0;;;12.0;;
45382;SDS011;42455;51.660;5.824;2022-08-01T02:20:15;13.0;;;11.0;;
45382;SDS011;42455;51.660;5.824;2022-08-01T02:25:25;13.0;;;11.0;;
45382;SDS011;42455;51.660;5.824;2022-08-01T02:30:27;13.0;;;12.0;;
45382;SDS011;42455;51.660;5.824;2022-08-01T02:35:37;13.0;;;11.0;;
45382;SDS011;42455;51.660;5.824;2022-08-01T02:40:40;13.0;;;12.0;;
45382;SDS011;42455;51.660;5.824;2022-08-01T02:45:51;13.0;;;11.0;;
45382;SDS011;42455;51.660;5.824;2022-08-01T02:50:53;13.0;;;11.0;;
45382;SDS011;42455;51.660;5.824;2022-08-01T02:55:58;13.0;;;11.0;;
45382;SDS011;42455;51.660;5.824;2022-08-01T03:01:04;13.0;;;11.0;;
45382;SDS011;42455;51.660;5.824;2022-08-01T03:06:08;14.0;;;12.0;;
45382;SDS011;42455;51.660;5.824;2022-08-01T03:11:15;15.0;;;12.0;;
45382;SDS011;42455;51.660;5.824;2022-08-01T03:16:21;14.0;;;12.0;;
45382;SDS011;42455;51.660;5.824;2022-08-01T03:21:29;13.0;;;11.0;;
45382;SDS011;42455;51.660;5.824;2022-08-01T03:26:33;13.0;;;11.0;;
45382;SDS011;42455;51.660;5.824;2022-08-01T03:31:39;14.0;;;13.0;;
45382;SDS011;42455;51.660;5.824;2022-08-01T03:36:56;14.0;;;12.0;;
45382;SDS011;42455;51.660;5.824;2022-08-01T03:41:51;14.0;;;13.0;;
45382;SDS011;42455;51.660;5.824;2022-08-01T03:46:58;15.0;;;14.0;;
45382;SDS011;42455;51.660;5.824;2022-08-01T03:52:04;15.0;;;13.0;;
45382;SDS011;42455;51.660;5.824;2022-08-01T03:57:09;16.0;;;14.0;;
45382;SDS011;42455;51.660;5.824;2022-08-01T04:02:16;16.0;;;14.0;;
45382;SDS011;42455;51.660;5.824;2022-08-01T04:07:26;17.0;;;15.0;;
45382;SDS011;42455;51.660;5.824;2022-08-01T04:12:28;17.0;;;15.0;;
45382;SDS011;42455;51.660;5.824;2022-08-01T04:17:34;18.0;;;15.0;;
45382;SDS011;42455;51.660;5.824;2022-08-01T04:22:41;18.0;;;15.0;;
45382;SDS011;42455;51.660;5.824;2022-08-01T04:27:49;18.0;;;16.0;;
45382;SDS011;42455;51.660;5.824;2022-08-01T04:32:54;18.0;;;15.0;;
45382;SDS011;42455;51.660;5.824;2022-08-01T04:37:59;18.0;;;15.0;;
45382;SDS011;42455;51.660;5.824;2022-08-01T04:43:05;22.0;;;16.0;;
45382;SDS011;42455;51.660;5.824;2022-08-01T04:48:13;18.0;;;15.0;;
45382;SDS011;42455;51.660;5.824;2022-08-01T04:53:19;18.0;;;15.0;;
45382;SDS011;42455;51.660;5.824;2022-08-01T04:58:23;18.0;;;14.0;;
45382;SDS011;42455;51.660;5.824;2022-08-01T05:03:28;18.0;;;15.0;;
45382;SDS011;42455;51.660;5.824;2022-08-01T05:08:34;18.0;;;15.0;;
45382;SDS011;42455;51.660;5.824;2022-08-01T05:13:41;18.0;;;15.0;;
45382;SDS011;42455;51.660;5.824;2022-08-01T05:18:47;18.0;;;15.0;;
45382;SDS011;42455;51.660;5.824;2022-08-01T05:23:53;19.0;;;15.0;;
45382;SDS011;42455;51.660;5.824;2022-08-01T05:28:59;19.0;;;15.0;;
45382;SDS011;42455;51.660;5.824;2022-08-01T05:34:05;18.0;;;15.0;;
45382;SDS011;42455;51.660;5.824;2022-08-01T05:39:12;19.0;;;16.0;;
45382;SDS011;42455;51.660;5.824;2022-08-01T05:44:18;17.0;;;15.0;;
45382;SDS011;42455;51.660;5.824;2022-08-01T05:49:24;16.0;;;14.0;;
45382;SDS011;42455;51.660;5.824;2022-08-01T05:54:30;16.0;;;15.0;;
45382;SDS011;42455;51.660;5.824;2022-08-01T05:59:37;17.0;;;15.0;;
45382;SDS011;42455;51.660;5.824;2022-08-01T06:04:43;17.0;;;15.0;;
45382;SDS011;42455;51.660;5.824;2022-08-01T06:09:49;17.0;;;15.0;;
45382;SDS011;42455;51.660;5.824;2022-08-01T06:14:55;18.0;;;16.0;;
45382;SDS011;42455;51.660;5.824;2022-08-01T06:20:01;18.0;;;16.0;;
45382;SDS011;42455;51.660;5.824;2022-08-01T06:25:08;19.0;;;17.0;;
45382;SDS011;42455;51.660;5.824;2022-08-01T06:30:14;19.0;;;17.0;;
45382;SDS011;42455;51.660;5.824;2022-08-01T06:35:20;18.0;;;16.5;;
45382;SDS011;42455;51.660;5.824;2022-08-01T06:40:26;18.0;;;16.5;;
45382;SDS011;42455;51.660;5.824;2022-08-01T06:45:32;18.0;;;16.0;;
45382;SDS011;42455;51.660;5.824;2022-08-01T06:50:38;16.0;;;14.0;;
45382;SDS011;42455;51.660;5.824;2022-08-01T06:55:44;16.0;;;14.0;;
45382;SDS011;42455;51.660;5.824;2022-08-01T07:00:49;13.0;;;12.0;;
45382;SDS011;42455;51.660;5.824;2022-08-01T07:05:55;14.0;;;13.0;;
45382;SDS011;42455;51.660;5.824;2022-08-01T07:11:01;13.0;;;12.0;;
45382;SDS011;42455;51.660;5.824;2022-08-01T07:16:08;11.0;;;10.0;;
45382;SDS011;42455;51.660;5.824;2022-08-01T07:21:14;12.0;;;10.0;;
45382;SDS011;42455;51.660;5.824;2022-08-01T07:26:20;11.0;;;10.0;;
45382;SDS011;42455;51.660;5.824;2022-08-01T07:31:26;7.0;;;7.0;;
45382;SDS011;42455;51.660;5.824;2022-08-01T07:36:33;7.0;;;6.0;;
45382;SDS011;42455;51.660;5.824;2022-08-01T07:41:39;4.0;;;4.0;;
45382;SDS011;42455;51.660;5.824;2022-08-01T07:46:45;5.0;;;4.0;;
45382;SDS011;42455;51.660;5.824;2022-08-01T07:51:51;4.0;;;4.0;;
45382;SDS011;42455;51.660;5.824;2022-08-01T07:56:57;5.0;;;5.0;;
45382;SDS011;42455;51.660;5.824;2022-08-01T08:02:04;7.0;;;6.0;;
45382;SDS011;42455;51.660;5.824;2022-08-01T08:07:10;7.0;;;7.0;;
45382;SDS011;42455;51.660;5.824;2022-08-01T08:12:16;7.0;;;6.0;;
45382;SDS011;42455;51.660;5.824;2022-08-01T08:17:22;6.0;;;6.0;;
45382;SDS011;42455;51.660;5.824;2022-08-01T08:22:28;6.0;;;5.0;;
45382;SDS011;42455;51.660;5.824;2022-08-01T08:27:35;3.5;;;3.0;;
45382;SDS011;42455;51.660;5.824;2022-08-01T08:32:41;5.0;;;4.0;;
45382;SDS011;42455;51.660;5.824;2022-08-01T08:37:47;4.0;;;4.0;;
45382;SDS011;42455;51.660;5.824;2022-08-01T08:42:53;3.0;;;3.0;;
45382;SDS011;42455;51.660;5.824;2022-08-01T08:47:58;3.0;;;2.0;;
45382;SDS011;42455;51.660;5.824;2022-08-01T08:53:05;2.0;;;2.0;;
45382;SDS011;42455;51.660;5.824;2022-08-01T08:58:11;2.0;;;1.0;;
45382;SDS011;42455;51.660;5.824;2022-08-01T09:03:17;2.0;;;2.0;;
45382;SDS011;42455;51.660;5.824;2022-08-01T09:08:23;2.0;;;2.0;;
45382;SDS011;42455;51.660;5.824;2022-08-01T09:13:30;2.0;;;1.0;;
45382;SDS011;42455;51.660;5.824;2022-08-01T09:18:36;1.0;;;1.0;;
45382;SDS011;42455;51.660;5.824;2022-08-01T09:23:43;1.0;;;1.0;;
45382;SDS011;42455;51.660;5.824;2022-08-01T09:28:48;1.0;;;1.0;;
45382;SDS011;42455;51.660;5.824;2022-08-01T09:33:56;1.0;;;1.0;;
45382;SDS011;42455;51.660;5.824;2022-08-01T09:39:13;1.0;;;1.0;;
45382;SDS011;42455;51.660;5.824;2022-08-01T09:44:07;1.0;;;1.0;;
45382;SDS011;42455;51.660;5.824;2022-08-01T09:49:13;1.0;;;1.0;;
45382;SDS011;42455;51.660;5.824;2022-08-01T09:54:30;1.0;;;1.0;;
45382;SDS011;42455;51.660;5.824;2022-08-01T09:59:34;1.0;;;0.0;;
45382;SDS011;42455;51.660;5.824;2022-08-01T10:04:32;0.5;;;0.0;;
45382;SDS011;42455;51.660;5.824;2022-08-01T10:09:38;1.0;;;0.0;;
45382;SDS011;42455;51.660;5.824;2022-08-01T10:14:46;1.0;;;1.0;;
45382;SDS011;42455;51.660;5.824;2022-08-01T10:19:50;1.0;;;1.0;;
45382;SDS011;42455;51.660;5.824;2022-08-01T10:24:57;1.0;;;1.0;;
45382;SDS011;42455;51.660;5.824;2022-08-01T10:30:03;1.0;;;1.0;;
45382;SDS011;42455;51.660;5.824;2022-08-01T10:35:08;1.0;;;1.0;;
45382;SDS011;42455;51.660;5.824;2022-08-01T10:40:14;1.0;;;1.0;;
45382;SDS011;42455;51.660;5.824;2022-08-01T10:45:19;1.0;;;1.0;;
45382;SDS011;42455;51.660;5.824;2022-08-01T10:50:41;1.0;;;1.0;;
45382;SDS011;42455;51.660;5.824;2022-08-01T10:55:40;2.0;;;1.0;;
45382;SDS011;42455;51.660;5.824;2022-08-01T11:00:38;1.0;;;1.0;;
45382;SDS011;42455;51.660;5.824;2022-08-01T11:05:44;1.0;;;0.0;;
45382;SDS011;42455;51.660;5.824;2022-08-01T11:10:50;0.0;;;0.0;;
45382;SDS011;42455;51.660;5.824;2022-08-01T11:16:01;1.0;;;0.0;;
45382;SDS011;42455;51.660;5.824;2022-08-01T11:21:03;1.0;;;1.0;;
45382;SDS011;42455;51.660;5.824;2022-08-01T11:26:14;1.0;;;1.0;;
45382;SDS011;42455;51.660;5.824;2022-08-01T11:31:28;1.0;;;1.0;;
45382;SDS011;42455;51.660;5.824;2022-08-01T11:36:21;1.0;;;0.0;;
45382;SDS011;42455;51.660;5.824;2022-08-01T11:41:28;1.0;;;1.0;;
45382;SDS011;42455;51.660;5.824;2022-08-01T11:46:46;1.0;;;1.0;;
45382;SDS011;42455;51.660;5.824;2022-08-01T11:51:40;1.0;;;1.0;;
45382;SDS011;42455;51.660;5.824;2022-08-01T11:56:46;1.0;;;1.0;;
45382;SDS011;42455;51.660;5.824;2022-08-01T12:01:53;1.0;;;1.0;;
45382;SDS011;42455;51.660;5.824;2022-08-01T12:07:11;1.0;;;1.0;;
45382;SDS011;42455;51.660;5.824;2022-08-01T12:12:05;1.0;;;1.0;;
45382;SDS011;42455;51.660;5.824;2022-08-01T12:17:11;1.0;;;0.0;;
45382;SDS011;42455;51.660;5.824;2022-08-01T12:22:17;1.0;;;1.0;;
45382;SDS011;42455;51.660;5.824;2022-08-01T12:27:25;1.0;;;1.0;;
45382;SDS011;42455;51.660;5.824;2022-08-01T12:32:29;1.0;;;1.0;;
45382;SDS011;42455;51.660;5.824;2022-08-01T12:37:35;2.0;;;1.0;;
45382;SDS011;42455;51.660;5.824;2022-08-01T12:42:42;2.0;;;1.0;;
45382;SDS011;42455;51.660;5.824;2022-08-01T12:47:47;3.0;;;1.0;;
45382;SDS011;42455;51.660;5.824;2022-08-01T12:52:54;2.0;;;1.0;;
45382;SDS011;42455;51.660;5.824;2022-08-01T12:58:06;2.0;;;1.0;;
45382;SDS011;42455;51.660;5.824;2022-08-01T13:03:09;2.0;;;1.0;;
45382;SDS011;42455;51.660;5.824;2022-08-01T13:08:14;3.0;;;1.0;;
45382;SDS011;42455;51.660;5.824;2022-08-01T13:13:18;3.0;;;1.0;;
45382;SDS011;42455;51.660;5.824;2022-08-01T13:18:27;2.0;;;1.0;;
45382;SDS011;42455;51.660;5.824;2022-08-01T13:23:31;2.0;;;1.0;;
45382;SDS011;42455;51.660;5.824;2022-08-01T13:28:37;2.0;;;1.0;;
45382;SDS011;42455;51.660;5.824;2022-08-01T13:33:46;4.0;;;1.0;;
45382;SDS011;42455;51.660;5.824;2022-08-01T13:38:50;3.0;;;2.0;;
45382;SDS011;42455;51.660;5.824;2022-08-01T13:43:56;3.0;;;2.0;;
45382;SDS011;42455;51.660;5.824;2022-08-01T13:49:02;4.0;;;2.0;;
45382;SDS011;42455;51.660;5.824;2022-08-01T13:54:08;2.0;;;2.0;;
45382;SDS011;42455;51.660;5.824;2022-08-01T13:59:14;3.0;;;2.0;;
45382;SDS011;42455;51.660;5.824;2022-08-01T14:04:20;3.0;;;2.0;;
45382;SDS011;42455;51.660;5.824;2022-08-01T14:09:27;3.0;;;2.0;;
45382;SDS011;42455;51.660;5.824;2022-08-01T14:14:33;2.5;;;2.0;;
45382;SDS011;42455;51.660;5.824;2022-08-01T14:19:38;3.0;;;2.0;;
45382;SDS011;42455;51.660;5.824;2022-08-01T14:24:44;3.0;;;2.0;;
45382;SDS011;42455;51.660;5.824;2022-08-01T14:29:50;4.0;;;2.0;;
45382;SDS011;42455;51.660;5.824;2022-08-01T14:34:56;4.0;;;2.0;;
45382;SDS011;42455;51.660;5.824;2022-08-01T14:40:02;4.0;;;2.0;;
45382;SDS011;42455;51.660;5.824;2022-08-01T14:45:08;5.0;;;4.0;;
45382;SDS011;42455;51.660;5.824;2022-08-01T14:50:15;3.0;;;2.0;;
45382;SDS011;42455;51.660;5.824;2022-08-01T14:55:21;3.0;;;2.0;;
45382;SDS011;42455;51.660;5.824;2022-08-01T15:00:27;3.0;;;2.0;;
45382;SDS011;42455;51.660;5.824;2022-08-01T15:05:33;4.0;;;3.0;;
45382;SDS011;42455;51.660;5.824;2022-08-01T15:10:39;4.0;;;2.0;;
45382;SDS011;42455;51.660;5.824;2022-08-01T15:15:46;3.0;;;2.5;;
45382;SDS011;42455;51.660;5.824;2022-08-01T15:20:52;5.5;;;2.0;;
45382;SDS011;42455;51.660;5.824;2022-08-01T15:25:58;4.0;;;2.0;;
45382;SDS011;42455;51.660;5.824;2022-08-01T15:31:04;3.0;;;2.0;;
45382;SDS011;42455;51.660;5.824;2022-08-01T15:36:10;3.0;;;2.0;;
45382;SDS011;42455;51.660;5.824;2022-08-01T15:41:17;4.0;;;2.0;;
45382;SDS011;42455;51.660;5.824;2022-08-01T15:46:23;4.0;;;2.0;;
45382;SDS011;42455;51.660;5.824;2022-08-01T15:51:29;4.0;;;2.0;;
45382;SDS011;42455;51.660;5.824;2022-08-01T15:56:36;5.0;;;2.0;;
45382;SDS011;42455;51.660;5.824;2022-08-01T16:01:42;4.0;;;2.0;;
45382;SDS011;42455;51.660;5.824;2022-08-01T16:06:48;2.0;;;2.0;;
45382;SDS011;42455;51.660;5.824;2022-08-01T16:11:54;2.0;;;1.0;;
45382;SDS011;42455;51.660;5.824;2022-08-01T16:16:59;2.5;;;1.0;;
45382;SDS011;42455;51.660;5.824;2022-08-01T16:22:05;2.0;;;1.0;;
45382;SDS011;42455;51.660;5.824;2022-08-01T16:27:12;4.0;;;2.0;;
45382;SDS011;42455;51.660;5.824;2022-08-01T16:32:18;3.0;;;2.0;;
45382;SDS011;42455;51.660;5.824;2022-08-01T16:37:24;3.0;;;1.0;;
45382;SDS011;42455;51.660;5.824;2022-08-01T16:42:30;3.0;;;1.0;;
45382;SDS011;42455;51.660;5.824;2022-08-01T16:47:36;2.0;;;1.0;;
45382;SDS011;42455;51.660;5.824;2022-08-01T16:52:43;2.0;;;1.0;;
45382;SDS011;42455;51.660;5.824;2022-08-01T16:57:49;2.0;;;1.0;;
45382;SDS011;42455;51.660;5.824;2022-08-01T17:02:55;2.0;;;1.0;;
45382;SDS011;42455;51.660;5.824;2022-08-01T17:08:01;2.0;;;1.0;;
45382;SDS011;42455;51.660;5.824;2022-08-01T17:13:08;2.0;;;1.0;;
45382;SDS011;42455;51.660;5.824;2022-08-01T17:18:14;2.0;;;1.0;;
45382;SDS011;42455;51.660;5.824;2022-08-01T17:23:20;1.0;;;1.0;;
45382;SDS011;42455;51.660;5.824;2022-08-01T17:28:26;2.0;;;1.0;;
45382;SDS011;42455;51.660;5.824;2022-08-01T17:33:33;3.0;;;1.0;;
45382;SDS011;42455;51.660;5.824;2022-08-01T17:38:39;3.0;;;1.0;;
45382;SDS011;42455;51.660;5.824;2022-08-01T17:43:45;3.0;;;1.0;;
45382;SDS011;42455;51.660;5.824;2022-08-01T17:48:51;2.0;;;1.0;;
45382;SDS011;42455;51.660;5.824;2022-08-01T17:53:58;2.0;;;1.0;;
45382;SDS011;42455;51.660;5.824;2022-08-01T18:04:10;2.0;;;1.0;;
45382;SDS011;42455;51.660;5.824;2022-08-01T18:09:17;2.0;;;1.0;;
45382;SDS011;42455;51.660;5.824;2022-08-01T18:14:23;1.0;;;1.0;;
45382;SDS011;42455;51.660;5.824;2022-08-01T18:19:29;2.0;;;1.0;;
45382;SDS011;42455;51.660;5.824;2022-08-01T18:24:35;2.0;;;1.0;;
45382;SDS011;42455;51.660;5.824;2022-08-01T18:29:42;1.5;;;1.0;;
45382;SDS011;42455;51.660;5.824;2022-08-01T18:34:48;2.0;;;1.0;;
45382;SDS011;42455;51.660;5.824;2022-08-01T18:39:54;2.0;;;1.0;;
45382;SDS011;42455;51.660;5.824;2022-08-01T18:45:00;1.5;;;1.0;;
45382;SDS011;42455;51.660;5.824;2022-08-01T18:50:06;1.0;;;1.0;;
45382;SDS011;42455;51.660;5.824;2022-08-01T18:55:12;2.0;;;1.0;;
45382;SDS011;42455;51.660;5.824;2022-08-01T19:00:19;2.0;;;1.0;;
45382;SDS011;42455;51.660;5.824;2022-08-01T19:05:25;1.0;;;1.0;;
45382;SDS011;42455;51.660;5.824;2022-08-01T19:10:31;2.0;;;1.0;;
45382;SDS011;42455;51.660;5.824;2022-08-01T19:15:37;2.0;;;1.0;;
45382;SDS011;42455;51.660;5.824;2022-08-01T19:20:44;3.0;;;1.0;;
45382;SDS011;42455;51.660;5.824;2022-08-01T19:25:50;2.5;;;1.0;;
45382;SDS011;42455;51.660;5.824;2022-08-01T19:30:56;2.0;;;1.0;;
45382;SDS011;42455;51.660;5.824;2022-08-01T19:36:02;2.0;;;1.0;;
45382;SDS011;42455;51.660;5.824;2022-08-01T19:41:09;3.0;;;1.0;;
45382;SDS011;42455;51.660;5.824;2022-08-01T19:46:15;2.0;;;1.0;;
45382;SDS011;42455;51.660;5.824;2022-08-01T19:51:21;2.0;;;1.0;;
45382;SDS011;42455;51.660;5.824;2022-08-01T19:56:27;2.0;;;1.0;;
45382;SDS011;42455;51.660;5.824;2022-08-01T20:01:33;2.0;;;1.0;;
45382;SDS011;42455;51.660;5.824;2022-08-01T20:06:39;3.0;;;1.0;;
45382;SDS011;42455;51.660;5.824;2022-08-01T20:16:52;3.0;;;1.0;;
45382;SDS011;42455;51.660;5.824;2022-08-01T20:22:00;2.0;;;1.0;;
45382;SDS011;42455;51.660;5.824;2022-08-01T20:27:04;2.0;;;1.0;;
45382;SDS011;42455;51.660;5.824;2022-08-01T20:32:10;2.0;;;1.0;;
45382;SDS011;42455;51.660;5.824;2022-08-01T20:37:17;2.0;;;1.0;;
45382;SDS011;42455;51.660;5.824;2022-08-01T20:42:22;2.0;;;1.0;;
45382;SDS011;42455;51.660;5.824;2022-08-01T20:47:28;1.5;;;1.0;;
45382;SDS011;42455;51.660;5.824;2022-08-01T20:52:34;2.0;;;1.0;;
45382;SDS011;42455;51.660;5.824;2022-08-01T20:57:41;3.0;;;1.0;;
45382;SDS011;42455;51.660;5.824;2022-08-01T21:03:07;2.0;;;1.0;;
45382;SDS011;42455;51.660;5.824;2022-08-01T21:08:01;3.0;;;2.0;;
45382;SDS011;42455;51.660;5.824;2022-08-01T21:13:01;2.0;;;2.0;;
45382;SDS011;42455;51.660;5.824;2022-08-01T21:18:12;2.0;;;2.0;;
45382;SDS011;42455;51.660;5.824;2022-08-01T21:23:13;3.0;;;2.0;;
45382;SDS011;42455;51.660;5.824;2022-08-01T21:28:18;2.0;;;2.0;;
45382;SDS011;42455;51.660;5.824;2022-08-01T21:33:25;2.5;;;2.0;;
45382;SDS011;42455;51.660;5.824;2022-08-01T21:38:31;3.0;;;2.0;;
45382;SDS011;42455;51.660;5.824;2022-08-01T21:43:37;3.0;;;2.0;;
45382;SDS011;42455;51.660;5.824;2022-08-01T21:48:44;3.0;;;2.0;;
45382;SDS011;42455;51.660;5.824;2022-08-01T21:54:02;3.0;;;2.0;;
45382;SDS011;42455;51.660;5.824;2022-08-01T21:59:27;2.0;;;1.5;;
45382;SDS011;42455;51.660;5.824;2022-08-01T22:04:01;3.0;;;2.0;;
45382;SDS011;42455;51.660;5.824;2022-08-01T22:09:07;3.0;;;2.0;;
45382;SDS011;42455;51.660;5.824;2022-08-01T22:14:14;2.0;;;2.0;;
45382;SDS011;42455;51.660;5.824;2022-08-01T22:19:20;2.0;;;2.0;;
45382;SDS011;42455;51.660;5.824;2022-08-01T22:24:27;3.0;;;2.0;;
45382;SDS011;42455;51.660;5.824;2022-08-01T22:29:32;3.0;;;2.0;;
45382;SDS011;42455;51.660;5.824;2022-08-01T22:34:38;3.0;;;2.0;;
45382;SDS011;42455;51.660;5.824;2022-08-01T22:39:45;3.0;;;2.0;;
45382;SDS011;42455;51.660;5.824;2022-08-01T22:45:10;3.0;;;2.0;;
45382;SDS011;42455;51.660;5.824;2022-08-01T22:50:07;4.0;;;2.0;;
45382;SDS011;42455;51.660;5.824;2022-08-01T22:55:10;3.0;;;2.0;;
45382;SDS011;42455;51.660;5.824;2022-08-01T23:00:09;3.0;;;2.0;;
45382;SDS011;42455;51.660;5.824;2022-08-01T23:05:20;3.0;;;2.0;;
45382;SDS011;42455;51.660;5.824;2022-08-01T23:10:23;3.0;;;2.0;;
45382;SDS011;42455;51.660;5.824;2022-08-01T23:15:28;3.0;;;3.0;;
45382;SDS011;42455;51.660;5.824;2022-08-01T23:20:34;3.0;;;2.0;;
45382;SDS011;42455;51.660;5.824;2022-08-01T23:25:41;3.0;;;3.0;;
45382;SDS011;42455;51.660;5.824;2022-08-01T23:30:47;3.0;;;2.0;;
45382;SDS011;42455;51.660;5.824;2022-08-01T23:40:59;3.0;;;2.0;;
45382;SDS011;42455;51.660;5.824;2022-08-01T23:46:05;4.0;;;2.0;;
45382;SDS011;42455;51.660;5.824;2022-08-01T23:51:12;3.0;;;3.0;;
45382;SDS011;42455;51.660;5.824;2022-08-01T23:56:18;3.0;;;2.0;;
